sensor_id;sensor_type;location;lat;lon;timestamp;P1;durP1;ratioP1;P2;durP2;ratioP2
63112;SDS011;49206;48.020;21.378;2023-05-07T00:00:36;14.32;;;11.13;;
63112;SDS011;49206;48.020;21.378;2023-05-07T00:01:38;14.65;;;11.25;;
63112;SDS011;49206;48.020;21.378;2023-05-07T00:02:41;13.65;;;11.35;;
63112;SDS011;49206;48.020;21.378;2023-05-07T00:03:45;14.30;;;11.15;;
63112;SDS011;49206;48.020;21.378;2023-05-07T00:04:48;13.77;;;10.95;;
63112;SDS011;49206;48.020;21.378;2023-05-07T00:05:51;13.93;;;10.88;;
63112;SDS011;49206;48.020;21.378;2023-05-07T00:06:54;13.85;;;9.73;;
63112;SDS011;49206;48.020;21.378;2023-05-07T00:07:57;12.30;;;9.73;;
63112;SDS011;49206;48.020;21.378;2023-05-07T00:09:00;12.40;;;9.93;;
63112;SDS011;49206;48.020;21.378;2023-05-07T00:10:03;13.57;;;10.50;;
63112;SDS011;49206;48.020;21.378;2023-05-07T00:11:06;13.75;;;11.10;;
63112;SDS011;49206;48.020;21.378;2023-05-07T00:12:09;17.15;;;11.00;;
63112;SDS011;49206;48.020;21.378;2023-05-07T00:13:11;14.02;;;11.13;;
63112;SDS011;49206;48.020;21.378;2023-05-07T00:14:14;19.48;;;12.18;;
63112;SDS011;49206;48.020;21.378;2023-05-07T00:15:16;16.05;;;12.43;;
63112;SDS011;49206;48.020;21.378;2023-05-07T00:16:18;16.40;;;11.95;;
63112;SDS011;49206;48.020;21.378;2023-05-07T00:17:21;17.67;;;13.40;;
63112;SDS011;49206;48.020;21.378;2023-05-07T00:18:24;20.00;;;13.30;;
63112;SDS011;49206;48.020;21.378;2023-05-07T00:19:27;15.43;;;12.30;;
63112;SDS011;49206;48.020;21.378;2023-05-07T00:20:29;21.02;;;13.00;;
63112;SDS011;49206;48.020;21.378;2023-05-07T00:21:32;17.88;;;13.98;;
63112;SDS011;49206;48.020;21.378;2023-05-07T00:22:34;17.95;;;13.43;;
63112;SDS011;49206;48.020;21.378;2023-05-07T00:23:37;18.02;;;13.07;;
63112;SDS011;49206;48.020;21.378;2023-05-07T00:24:39;17.73;;;13.27;;
63112;SDS011;49206;48.020;21.378;2023-05-07T00:25:41;16.70;;;12.32;;
63112;SDS011;49206;48.020;21.378;2023-05-07T00:26:44;21.02;;;14.18;;
63112;SDS011;49206;48.020;21.378;2023-05-07T00:27:47;18.20;;;13.23;;
63112;SDS011;49206;48.020;21.378;2023-05-07T00:28:49;17.60;;;13.50;;
63112;SDS011;49206;48.020;21.378;2023-05-07T00:29:52;17.80;;;13.95;;
63112;SDS011;49206;48.020;21.378;2023-05-07T00:30:54;18.05;;;13.40;;
63112;SDS011;49206;48.020;21.378;2023-05-07T00:31:57;15.95;;;12.63;;
63112;SDS011;49206;48.020;21.378;2023-05-07T00:32:59;17.55;;;13.25;;
63112;SDS011;49206;48.020;21.378;2023-05-07T00:34:02;15.90;;;11.70;;
63112;SDS011;49206;48.020;21.378;2023-05-07T00:35:05;15.25;;;12.23;;
63112;SDS011;49206;48.020;21.378;2023-05-07T00:36:08;14.70;;;11.52;;
63112;SDS011;49206;48.020;21.378;2023-05-07T00:37:10;15.88;;;11.38;;
63112;SDS011;49206;48.020;21.378;2023-05-07T00:38:13;16.25;;;12.13;;
63112;SDS011;49206;48.020;21.378;2023-05-07T00:39:16;17.50;;;12.68;;
63112;SDS011;49206;48.020;21.378;2023-05-07T00:40:19;15.30;;;11.52;;
63112;SDS011;49206;48.020;21.378;2023-05-07T00:41:21;16.85;;;12.85;;
63112;SDS011;49206;48.020;21.378;2023-05-07T00:42:24;23.25;;;15.02;;
63112;SDS011;49206;48.020;21.378;2023-05-07T00:43:27;19.70;;;13.68;;
63112;SDS011;49206;48.020;21.378;2023-05-07T00:44:30;18.27;;;13.38;;
63112;SDS011;49206;48.020;21.378;2023-05-07T00:45:32;18.85;;;13.63;;
63112;SDS011;49206;48.020;21.378;2023-05-07T00:46:35;23.38;;;16.33;;
63112;SDS011;49206;48.020;21.378;2023-05-07T00:47:38;21.35;;;15.27;;
63112;SDS011;49206;48.020;21.378;2023-05-07T00:48:42;18.83;;;14.13;;
63112;SDS011;49206;48.020;21.378;2023-05-07T00:49:44;21.70;;;14.45;;
63112;SDS011;49206;48.020;21.378;2023-05-07T00:50:48;20.45;;;14.65;;
63112;SDS011;49206;48.020;21.378;2023-05-07T00:51:50;18.67;;;14.05;;
63112;SDS011;49206;48.020;21.378;2023-05-07T00:52:53;22.00;;;15.52;;
63112;SDS011;49206;48.020;21.378;2023-05-07T00:53:55;18.67;;;13.43;;
63112;SDS011;49206;48.020;21.378;2023-05-07T00:54:59;17.25;;;14.05;;
63112;SDS011;49206;48.020;21.378;2023-05-07T00:56:04;18.40;;;13.05;;
63112;SDS011;49206;48.020;21.378;2023-05-07T00:57:09;18.33;;;14.30;;
63112;SDS011;49206;48.020;21.378;2023-05-07T00:58:13;21.50;;;14.02;;
63112;SDS011;49206;48.020;21.378;2023-05-07T00:59:15;18.38;;;13.63;;
63112;SDS011;49206;48.020;21.378;2023-05-07T01:00:18;19.08;;;15.27;;
63112;SDS011;49206;48.020;21.378;2023-05-07T01:01:21;18.40;;;15.00;;
63112;SDS011;49206;48.020;21.378;2023-05-07T01:02:24;17.33;;;14.20;;
63112;SDS011;49206;48.020;21.378;2023-05-07T01:03:27;21.88;;;14.52;;
63112;SDS011;49206;48.020;21.378;2023-05-07T01:04:30;19.88;;;13.32;;
63112;SDS011;49206;48.020;21.378;2023-05-07T01:05:32;17.95;;;14.10;;
63112;SDS011;49206;48.020;21.378;2023-05-07T01:06:35;19.48;;;13.43;;
63112;SDS011;49206;48.020;21.378;2023-05-07T01:07:39;19.33;;;14.57;;
63112;SDS011;49206;48.020;21.378;2023-05-07T01:08:42;20.77;;;15.27;;
63112;SDS011;49206;48.020;21.378;2023-05-07T01:09:45;22.40;;;15.63;;
63112;SDS011;49206;48.020;21.378;2023-05-07T01:10:48;19.08;;;14.82;;
63112;SDS011;49206;48.020;21.378;2023-05-07T01:11:50;21.63;;;15.48;;
63112;SDS011;49206;48.020;21.378;2023-05-07T01:12:54;22.02;;;15.60;;
63112;SDS011;49206;48.020;21.378;2023-05-07T01:13:57;18.67;;;13.93;;
63112;SDS011;49206;48.020;21.378;2023-05-07T01:15:01;21.02;;;14.85;;
63112;SDS011;49206;48.020;21.378;2023-05-07T01:16:04;20.60;;;15.25;;
63112;SDS011;49206;48.020;21.378;2023-05-07T01:17:07;21.38;;;15.52;;
63112;SDS011;49206;48.020;21.378;2023-05-07T01:18:10;21.80;;;15.05;;
63112;SDS011;49206;48.020;21.378;2023-05-07T01:19:13;21.52;;;14.57;;
63112;SDS011;49206;48.020;21.378;2023-05-07T01:20:18;20.50;;;15.15;;
63112;SDS011;49206;48.020;21.378;2023-05-07T01:21:25;21.52;;;13.70;;
63112;SDS011;49206;48.020;21.378;2023-05-07T01:22:35;19.20;;;14.75;;
63112;SDS011;49206;48.020;21.378;2023-05-07T01:23:39;19.55;;;14.93;;
63112;SDS011;49206;48.020;21.378;2023-05-07T01:24:41;24.08;;;15.50;;
63112;SDS011;49206;48.020;21.378;2023-05-07T01:25:51;19.45;;;15.00;;
63112;SDS011;49206;48.020;21.378;2023-05-07T01:26:56;23.27;;;17.58;;
63112;SDS011;49206;48.020;21.378;2023-05-07T01:27:58;22.20;;;16.98;;
63112;SDS011;49206;48.020;21.378;2023-05-07T01:29:08;23.88;;;17.23;;
63112;SDS011;49206;48.020;21.378;2023-05-07T01:30:12;25.15;;;18.42;;
63112;SDS011;49206;48.020;21.378;2023-05-07T01:31:15;25.02;;;16.70;;
63112;SDS011;49206;48.020;21.378;2023-05-07T01:32:20;25.27;;;17.58;;
63112;SDS011;49206;48.020;21.378;2023-05-07T01:33:25;24.20;;;16.98;;
63112;SDS011;49206;48.020;21.378;2023-05-07T01:34:30;23.70;;;17.92;;
63112;SDS011;49206;48.020;21.378;2023-05-07T01:35:35;24.05;;;17.88;;
63112;SDS011;49206;48.020;21.378;2023-05-07T01:36:40;24.33;;;17.90;;
63112;SDS011;49206;48.020;21.378;2023-05-07T01:37:45;26.85;;;19.20;;
63112;SDS011;49206;48.020;21.378;2023-05-07T01:38:48;29.55;;;19.92;;
63112;SDS011;49206;48.020;21.378;2023-05-07T01:39:52;30.85;;;21.13;;
63112;SDS011;49206;48.020;21.378;2023-05-07T01:40:54;26.67;;;20.23;;
63112;SDS011;49206;48.020;21.378;2023-05-07T01:41:57;30.63;;;21.88;;
63112;SDS011;49206;48.020;21.378;2023-05-07T01:44:05;26.38;;;18.63;;
63112;SDS011;49206;48.020;21.378;2023-05-07T01:45:08;28.80;;;20.88;;
63112;SDS011;49206;48.020;21.378;2023-05-07T01:46:11;27.75;;;19.83;;
63112;SDS011;49206;48.020;21.378;2023-05-07T01:47:14;32.10;;;22.52;;
63112;SDS011;49206;48.020;21.378;2023-05-07T01:48:36;31.13;;;20.98;;
63112;SDS011;49206;48.020;21.378;2023-05-07T01:49:39;30.00;;;20.95;;
63112;SDS011;49206;48.020;21.378;2023-05-07T01:50:42;28.92;;;20.35;;
63112;SDS011;49206;48.020;21.378;2023-05-07T01:51:45;27.20;;;20.42;;
63112;SDS011;49206;48.020;21.378;2023-05-07T01:52:49;30.10;;;21.33;;
63112;SDS011;49206;48.020;21.378;2023-05-07T01:53:53;25.20;;;19.05;;
63112;SDS011;49206;48.020;21.378;2023-05-07T01:54:55;26.50;;;19.63;;
63112;SDS011;49206;48.020;21.378;2023-05-07T01:55:58;26.48;;;19.08;;
63112;SDS011;49206;48.020;21.378;2023-05-07T01:57:00;27.73;;;19.63;;
63112;SDS011;49206;48.020;21.378;2023-05-07T01:58:03;27.63;;;18.90;;
63112;SDS011;49206;48.020;21.378;2023-05-07T01:59:07;28.75;;;18.58;;
63112;SDS011;49206;48.020;21.378;2023-05-07T02:00:09;25.08;;;18.45;;
63112;SDS011;49206;48.020;21.378;2023-05-07T02:01:19;23.48;;;18.17;;
63112;SDS011;49206;48.020;21.378;2023-05-07T02:02:22;27.88;;;20.10;;
63112;SDS011;49206;48.020;21.378;2023-05-07T02:03:25;26.00;;;18.95;;
63112;SDS011;49206;48.020;21.378;2023-05-07T02:04:36;29.85;;;21.35;;
63112;SDS011;49206;48.020;21.378;2023-05-07T02:05:39;30.00;;;20.08;;
63112;SDS011;49206;48.020;21.378;2023-05-07T02:07:01;30.17;;;19.52;;
63112;SDS011;49206;48.020;21.378;2023-05-07T02:08:04;27.48;;;20.10;;
63112;SDS011;49206;48.020;21.378;2023-05-07T02:09:06;28.30;;;19.73;;
63112;SDS011;49206;48.020;21.378;2023-05-07T02:10:12;29.77;;;20.25;;
63112;SDS011;49206;48.020;21.378;2023-05-07T02:11:14;29.75;;;20.52;;
63112;SDS011;49206;48.020;21.378;2023-05-07T02:12:17;30.27;;;21.58;;
63112;SDS011;49206;48.020;21.378;2023-05-07T02:13:19;30.45;;;21.85;;
63112;SDS011;49206;48.020;21.378;2023-05-07T02:14:24;28.55;;;21.05;;
63112;SDS011;49206;48.020;21.378;2023-05-07T02:15:28;28.50;;;21.42;;
63112;SDS011;49206;48.020;21.378;2023-05-07T02:16:31;32.08;;;22.50;;
63112;SDS011;49206;48.020;21.378;2023-05-07T02:17:34;30.98;;;20.75;;
63112;SDS011;49206;48.020;21.378;2023-05-07T02:18:37;29.60;;;20.35;;
63112;SDS011;49206;48.020;21.378;2023-05-07T02:19:40;29.77;;;21.20;;
63112;SDS011;49206;48.020;21.378;2023-05-07T02:20:43;26.42;;;20.55;;
63112;SDS011;49206;48.020;21.378;2023-05-07T02:21:45;28.55;;;19.92;;
63112;SDS011;49206;48.020;21.378;2023-05-07T02:22:47;26.92;;;20.92;;
63112;SDS011;49206;48.020;21.378;2023-05-07T02:23:50;28.55;;;20.52;;
63112;SDS011;49206;48.020;21.378;2023-05-07T02:24:53;28.83;;;19.67;;
63112;SDS011;49206;48.020;21.378;2023-05-07T02:25:55;29.00;;;20.40;;
63112;SDS011;49206;48.020;21.378;2023-05-07T02:26:58;27.55;;;19.73;;
63112;SDS011;49206;48.020;21.378;2023-05-07T02:28:00;28.88;;;21.13;;
63112;SDS011;49206;48.020;21.378;2023-05-07T02:29:14;32.90;;;21.42;;
63112;SDS011;49206;48.020;21.378;2023-05-07T02:30:17;27.13;;;20.05;;
63112;SDS011;49206;48.020;21.378;2023-05-07T02:31:19;32.33;;;20.58;;
63112;SDS011;49206;48.020;21.378;2023-05-07T02:32:22;28.88;;;20.27;;
63112;SDS011;49206;48.020;21.378;2023-05-07T02:33:25;25.58;;;19.88;;
63112;SDS011;49206;48.020;21.378;2023-05-07T02:34:27;29.25;;;20.75;;
63112;SDS011;49206;48.020;21.378;2023-05-07T02:35:30;29.08;;;21.27;;
63112;SDS011;49206;48.020;21.378;2023-05-07T02:36:32;38.80;;;21.13;;
63112;SDS011;49206;48.020;21.378;2023-05-07T02:37:40;28.38;;;19.20;;
63112;SDS011;49206;48.020;21.378;2023-05-07T02:38:42;27.42;;;20.30;;
63112;SDS011;49206;48.020;21.378;2023-05-07T02:39:45;28.60;;;20.70;;
63112;SDS011;49206;48.020;21.378;2023-05-07T02:40:48;29.70;;;21.27;;
63112;SDS011;49206;48.020;21.378;2023-05-07T02:41:51;30.67;;;21.08;;
63112;SDS011;49206;48.020;21.378;2023-05-07T02:42:53;28.35;;;20.25;;
63112;SDS011;49206;48.020;21.378;2023-05-07T02:43:56;28.95;;;20.77;;
63112;SDS011;49206;48.020;21.378;2023-05-07T02:44:59;28.55;;;20.90;;
63112;SDS011;49206;48.020;21.378;2023-05-07T02:46:05;30.08;;;22.15;;
63112;SDS011;49206;48.020;21.378;2023-05-07T02:47:13;24.92;;;19.20;;
63112;SDS011;49206;48.020;21.378;2023-05-07T02:48:18;27.40;;;21.30;;
63112;SDS011;49206;48.020;21.378;2023-05-07T02:49:20;27.92;;;19.85;;
63112;SDS011;49206;48.020;21.378;2023-05-07T02:50:23;26.02;;;19.80;;
63112;SDS011;49206;48.020;21.378;2023-05-07T02:51:26;24.85;;;18.42;;
63112;SDS011;49206;48.020;21.378;2023-05-07T02:52:32;26.10;;;19.17;;
63112;SDS011;49206;48.020;21.378;2023-05-07T02:53:34;24.98;;;19.00;;
63112;SDS011;49206;48.020;21.378;2023-05-07T02:54:36;28.75;;;19.38;;
63112;SDS011;49206;48.020;21.378;2023-05-07T02:55:39;26.83;;;20.45;;
63112;SDS011;49206;48.020;21.378;2023-05-07T02:56:41;26.30;;;18.98;;
63112;SDS011;49206;48.020;21.378;2023-05-07T02:57:44;25.52;;;19.42;;
63112;SDS011;49206;48.020;21.378;2023-05-07T02:58:46;27.80;;;20.05;;
63112;SDS011;49206;48.020;21.378;2023-05-07T02:59:50;28.67;;;20.15;;
63112;SDS011;49206;48.020;21.378;2023-05-07T03:00:55;27.02;;;20.30;;
63112;SDS011;49206;48.020;21.378;2023-05-07T03:03:14;24.83;;;17.90;;
63112;SDS011;49206;48.020;21.378;2023-05-07T03:04:17;27.85;;;19.58;;
63112;SDS011;49206;48.020;21.378;2023-05-07T03:05:19;29.15;;;20.48;;
63112;SDS011;49206;48.020;21.378;2023-05-07T03:06:22;28.50;;;19.17;;
63112;SDS011;49206;48.020;21.378;2023-05-07T03:07:24;27.38;;;20.33;;
63112;SDS011;49206;48.020;21.378;2023-05-07T03:08:27;29.55;;;20.52;;
63112;SDS011;49206;48.020;21.378;2023-05-07T03:09:29;26.67;;;19.13;;
63112;SDS011;49206;48.020;21.378;2023-05-07T03:10:32;28.75;;;20.95;;
63112;SDS011;49206;48.020;21.378;2023-05-07T03:11:34;25.02;;;19.42;;
63112;SDS011;49206;48.020;21.378;2023-05-07T03:12:37;28.50;;;20.27;;
63112;SDS011;49206;48.020;21.378;2023-05-07T03:13:40;32.65;;;21.27;;
63112;SDS011;49206;48.020;21.378;2023-05-07T03:14:42;28.30;;;19.30;;
63112;SDS011;49206;48.020;21.378;2023-05-07T03:15:45;28.77;;;20.63;;
63112;SDS011;49206;48.020;21.378;2023-05-07T03:16:48;28.85;;;20.23;;
63112;SDS011;49206;48.020;21.378;2023-05-07T03:17:51;28.48;;;19.42;;
63112;SDS011;49206;48.020;21.378;2023-05-07T03:18:53;30.98;;;21.33;;
63112;SDS011;49206;48.020;21.378;2023-05-07T03:19:56;33.28;;;24.13;;
63112;SDS011;49206;48.020;21.378;2023-05-07T03:20:59;32.47;;;23.17;;
63112;SDS011;49206;48.020;21.378;2023-05-07T03:22:01;31.42;;;21.73;;
63112;SDS011;49206;48.020;21.378;2023-05-07T03:23:04;28.08;;;21.05;;
63112;SDS011;49206;48.020;21.378;2023-05-07T03:24:06;29.08;;;20.30;;
63112;SDS011;49206;48.020;21.378;2023-05-07T03:25:09;26.90;;;20.55;;
63112;SDS011;49206;48.020;21.378;2023-05-07T03:26:11;27.67;;;19.38;;
63112;SDS011;49206;48.020;21.378;2023-05-07T03:27:15;27.15;;;20.75;;
63112;SDS011;49206;48.020;21.378;2023-05-07T03:28:17;30.17;;;20.70;;
63112;SDS011;49206;48.020;21.378;2023-05-07T03:29:31;27.35;;;20.05;;
63112;SDS011;49206;48.020;21.378;2023-05-07T03:30:33;28.83;;;20.10;;
63112;SDS011;49206;48.020;21.378;2023-05-07T03:31:36;28.85;;;20.35;;
63112;SDS011;49206;48.020;21.378;2023-05-07T03:32:38;29.35;;;20.17;;
63112;SDS011;49206;48.020;21.378;2023-05-07T03:33:54;31.40;;;20.85;;
63112;SDS011;49206;48.020;21.378;2023-05-07T03:34:58;28.50;;;20.52;;
63112;SDS011;49206;48.020;21.378;2023-05-07T03:36:01;29.20;;;20.83;;
63112;SDS011;49206;48.020;21.378;2023-05-07T03:37:03;27.40;;;20.45;;
63112;SDS011;49206;48.020;21.378;2023-05-07T03:38:06;31.27;;;20.83;;
63112;SDS011;49206;48.020;21.378;2023-05-07T03:39:10;28.35;;;19.55;;
63112;SDS011;49206;48.020;21.378;2023-05-07T03:40:15;27.83;;;19.75;;
63112;SDS011;49206;48.020;21.378;2023-05-07T03:41:24;27.73;;;19.05;;
63112;SDS011;49206;48.020;21.378;2023-05-07T03:42:28;30.13;;;20.23;;
63112;SDS011;49206;48.020;21.378;2023-05-07T03:43:31;29.95;;;20.83;;
63112;SDS011;49206;48.020;21.378;2023-05-07T03:44:39;27.98;;;20.05;;
63112;SDS011;49206;48.020;21.378;2023-05-07T03:45:42;29.88;;;18.77;;
63112;SDS011;49206;48.020;21.378;2023-05-07T03:46:49;26.65;;;19.23;;
63112;SDS011;49206;48.020;21.378;2023-05-07T03:47:51;28.95;;;21.48;;
63112;SDS011;49206;48.020;21.378;2023-05-07T03:48:55;26.63;;;20.60;;
63112;SDS011;49206;48.020;21.378;2023-05-07T03:49:58;26.83;;;19.88;;
63112;SDS011;49206;48.020;21.378;2023-05-07T03:51:01;31.42;;;20.67;;
63112;SDS011;49206;48.020;21.378;2023-05-07T03:52:07;29.55;;;20.33;;
63112;SDS011;49206;48.020;21.378;2023-05-07T03:53:09;29.02;;;19.60;;
63112;SDS011;49206;48.020;21.378;2023-05-07T03:54:13;30.85;;;21.00;;
63112;SDS011;49206;48.020;21.378;2023-05-07T03:55:19;28.85;;;20.52;;
63112;SDS011;49206;48.020;21.378;2023-05-07T03:56:26;29.40;;;20.23;;
63112;SDS011;49206;48.020;21.378;2023-05-07T03:57:31;29.25;;;19.33;;
63112;SDS011;49206;48.020;21.378;2023-05-07T03:58:34;36.35;;;22.13;;
63112;SDS011;49206;48.020;21.378;2023-05-07T03:59:42;32.83;;;22.73;;
63112;SDS011;49206;48.020;21.378;2023-05-07T04:00:44;37.83;;;24.95;;
63112;SDS011;49206;48.020;21.378;2023-05-07T04:01:54;45.60;;;27.38;;
63112;SDS011;49206;48.020;21.378;2023-05-07T04:02:58;47.50;;;27.23;;
63112;SDS011;49206;48.020;21.378;2023-05-07T04:04:04;43.60;;;26.50;;
63112;SDS011;49206;48.020;21.378;2023-05-07T04:05:09;41.17;;;25.00;;
63112;SDS011;49206;48.020;21.378;2023-05-07T04:06:15;39.63;;;24.35;;
63112;SDS011;49206;48.020;21.378;2023-05-07T04:07:21;35.28;;;24.80;;
63112;SDS011;49206;48.020;21.378;2023-05-07T04:09:29;30.33;;;21.50;;
63112;SDS011;49206;48.020;21.378;2023-05-07T04:10:32;32.97;;;21.05;;
63112;SDS011;49206;48.020;21.378;2023-05-07T04:11:38;41.70;;;24.90;;
63112;SDS011;49206;48.020;21.378;2023-05-07T04:12:44;41.58;;;25.02;;
63112;SDS011;49206;48.020;21.378;2023-05-07T04:13:51;40.60;;;24.02;;
63112;SDS011;49206;48.020;21.378;2023-05-07T04:14:57;39.15;;;24.63;;
63112;SDS011;49206;48.020;21.378;2023-05-07T04:16:10;45.67;;;26.42;;
63112;SDS011;49206;48.020;21.378;2023-05-07T04:17:15;46.13;;;27.65;;
63112;SDS011;49206;48.020;21.378;2023-05-07T04:18:18;45.88;;;27.60;;
63112;SDS011;49206;48.020;21.378;2023-05-07T04:19:21;36.13;;;24.17;;
63112;SDS011;49206;48.020;21.378;2023-05-07T04:21:55;28.23;;;20.77;;
63112;SDS011;49206;48.020;21.378;2023-05-07T04:22:58;30.45;;;22.20;;
63112;SDS011;49206;48.020;21.378;2023-05-07T04:24:00;28.88;;;21.15;;
63112;SDS011;49206;48.020;21.378;2023-05-07T04:25:05;28.92;;;20.27;;
63112;SDS011;49206;48.020;21.378;2023-05-07T04:26:09;31.10;;;21.80;;
63112;SDS011;49206;48.020;21.378;2023-05-07T04:27:15;35.10;;;24.20;;
63112;SDS011;49206;48.020;21.378;2023-05-07T04:28:17;31.08;;;22.45;;
63112;SDS011;49206;48.020;21.378;2023-05-07T04:29:20;30.88;;;21.02;;
63112;SDS011;49206;48.020;21.378;2023-05-07T04:30:22;30.33;;;21.00;;
63112;SDS011;49206;48.020;21.378;2023-05-07T04:31:25;30.45;;;21.55;;
63112;SDS011;49206;48.020;21.378;2023-05-07T04:32:29;28.40;;;21.38;;
63112;SDS011;49206;48.020;21.378;2023-05-07T04:33:32;28.75;;;20.73;;
63112;SDS011;49206;48.020;21.378;2023-05-07T04:34:35;27.90;;;20.80;;
63112;SDS011;49206;48.020;21.378;2023-05-07T04:35:37;27.75;;;21.30;;
63112;SDS011;49206;48.020;21.378;2023-05-07T04:36:41;28.65;;;22.02;;
63112;SDS011;49206;48.020;21.378;2023-05-07T04:37:46;29.85;;;21.73;;
63112;SDS011;49206;48.020;21.378;2023-05-07T04:38:48;29.83;;;22.13;;
63112;SDS011;49206;48.020;21.378;2023-05-07T04:39:53;27.95;;;21.65;;
63112;SDS011;49206;48.020;21.378;2023-05-07T04:40:57;29.27;;;22.25;;
63112;SDS011;49206;48.020;21.378;2023-05-07T04:42:01;28.65;;;20.75;;
63112;SDS011;49206;48.020;21.378;2023-05-07T04:43:05;28.38;;;21.33;;
63112;SDS011;49206;48.020;21.378;2023-05-07T04:44:14;30.27;;;22.65;;
63112;SDS011;49206;48.020;21.378;2023-05-07T04:45:17;27.65;;;20.65;;
63112;SDS011;49206;48.020;21.378;2023-05-07T04:46:22;30.15;;;20.88;;
63112;SDS011;49206;48.020;21.378;2023-05-07T04:47:26;30.23;;;21.65;;
63112;SDS011;49206;48.020;21.378;2023-05-07T04:48:29;28.42;;;21.67;;
63112;SDS011;49206;48.020;21.378;2023-05-07T04:49:34;26.92;;;20.63;;
63112;SDS011;49206;48.020;21.378;2023-05-07T04:50:37;27.70;;;21.50;;
63112;SDS011;49206;48.020;21.378;2023-05-07T04:51:39;28.25;;;23.33;;
63112;SDS011;49206;48.020;21.378;2023-05-07T04:52:48;24.92;;;20.35;;
63112;SDS011;49206;48.020;21.378;2023-05-07T04:53:50;25.15;;;19.27;;
63112;SDS011;49206;48.020;21.378;2023-05-07T04:54:54;27.70;;;19.73;;
63112;SDS011;49206;48.020;21.378;2023-05-07T04:55:57;24.90;;;19.73;;
63112;SDS011;49206;48.020;21.378;2023-05-07T04:57:05;27.23;;;20.02;;
63112;SDS011;49206;48.020;21.378;2023-05-07T04:58:08;24.95;;;20.27;;
63112;SDS011;49206;48.020;21.378;2023-05-07T04:59:12;26.05;;;20.50;;
63112;SDS011;49206;48.020;21.378;2023-05-07T05:00:15;25.63;;;20.08;;
63112;SDS011;49206;48.020;21.378;2023-05-07T05:01:19;24.55;;;19.15;;
63112;SDS011;49206;48.020;21.378;2023-05-07T05:02:22;26.67;;;20.08;;
63112;SDS011;49206;48.020;21.378;2023-05-07T05:03:26;27.27;;;20.58;;
63112;SDS011;49206;48.020;21.378;2023-05-07T05:04:29;27.58;;;21.40;;
63112;SDS011;49206;48.020;21.378;2023-05-07T05:05:32;25.42;;;20.17;;
63112;SDS011;49206;48.020;21.378;2023-05-07T05:06:35;25.90;;;19.92;;
63112;SDS011;49206;48.020;21.378;2023-05-07T05:07:39;24.58;;;19.73;;
63112;SDS011;49206;48.020;21.378;2023-05-07T05:08:42;25.10;;;18.80;;
63112;SDS011;49206;48.020;21.378;2023-05-07T05:09:45;23.98;;;19.45;;
63112;SDS011;49206;48.020;21.378;2023-05-07T05:10:50;29.08;;;19.85;;
63112;SDS011;49206;48.020;21.378;2023-05-07T05:12:05;23.83;;;17.80;;
63112;SDS011;49206;48.020;21.378;2023-05-07T05:13:11;23.00;;;17.77;;
63112;SDS011;49206;48.020;21.378;2023-05-07T05:14:17;22.45;;;16.98;;
63112;SDS011;49206;48.020;21.378;2023-05-07T05:15:19;19.73;;;15.88;;
63112;SDS011;49206;48.020;21.378;2023-05-07T05:16:22;19.77;;;15.40;;
63112;SDS011;49206;48.020;21.378;2023-05-07T05:17:24;21.90;;;15.95;;
63112;SDS011;49206;48.020;21.378;2023-05-07T05:18:30;22.13;;;14.70;;
63112;SDS011;49206;48.020;21.378;2023-05-07T05:19:33;20.95;;;16.73;;
63112;SDS011;49206;48.020;21.378;2023-05-07T05:20:36;18.90;;;15.13;;
63112;SDS011;49206;48.020;21.378;2023-05-07T05:21:38;18.75;;;14.93;;
63112;SDS011;49206;48.020;21.378;2023-05-07T05:22:43;23.25;;;15.27;;
63112;SDS011;49206;48.020;21.378;2023-05-07T05:23:47;18.70;;;14.70;;
63112;SDS011;49206;48.020;21.378;2023-05-07T05:24:54;19.45;;;13.98;;
63112;SDS011;49206;48.020;21.378;2023-05-07T05:25:57;19.38;;;15.07;;
63112;SDS011;49206;48.020;21.378;2023-05-07T05:27:03;18.05;;;14.50;;
63112;SDS011;49206;48.020;21.378;2023-05-07T05:28:06;17.17;;;13.30;;
63112;SDS011;49206;48.020;21.378;2023-05-07T05:29:09;18.92;;;13.73;;
63112;SDS011;49206;48.020;21.378;2023-05-07T05:30:15;16.92;;;13.18;;
63112;SDS011;49206;48.020;21.378;2023-05-07T05:31:20;16.27;;;13.40;;
63112;SDS011;49206;48.020;21.378;2023-05-07T05:32:24;18.08;;;13.85;;
63112;SDS011;49206;48.020;21.378;2023-05-07T05:33:31;15.95;;;13.38;;
63112;SDS011;49206;48.020;21.378;2023-05-07T05:34:37;18.33;;;12.15;;
63112;SDS011;49206;48.020;21.378;2023-05-07T05:35:40;16.02;;;12.43;;
63112;SDS011;49206;48.020;21.378;2023-05-07T05:36:47;16.23;;;11.90;;
63112;SDS011;49206;48.020;21.378;2023-05-07T05:37:50;15.88;;;12.10;;
63112;SDS011;49206;48.020;21.378;2023-05-07T05:38:53;15.93;;;12.55;;
63112;SDS011;49206;48.020;21.378;2023-05-07T05:39:57;15.90;;;13.05;;
63112;SDS011;49206;48.020;21.378;2023-05-07T05:41:01;17.05;;;11.57;;
63112;SDS011;49206;48.020;21.378;2023-05-07T05:42:04;17.58;;;13.27;;
63112;SDS011;49206;48.020;21.378;2023-05-07T05:43:09;16.10;;;12.20;;
63112;SDS011;49206;48.020;21.378;2023-05-07T05:44:13;15.15;;;12.45;;
63112;SDS011;49206;48.020;21.378;2023-05-07T05:45:16;16.27;;;12.93;;
63112;SDS011;49206;48.020;21.378;2023-05-07T05:46:20;15.68;;;12.68;;
63112;SDS011;49206;48.020;21.378;2023-05-07T05:47:25;14.82;;;12.00;;
63112;SDS011;49206;48.020;21.378;2023-05-07T05:48:30;16.05;;;12.48;;
63112;SDS011;49206;48.020;21.378;2023-05-07T05:49:35;15.48;;;11.30;;
63112;SDS011;49206;48.020;21.378;2023-05-07T05:51:41;15.63;;;11.57;;
63112;SDS011;49206;48.020;21.378;2023-05-07T05:52:44;16.02;;;11.95;;
63112;SDS011;49206;48.020;21.378;2023-05-07T05:53:46;15.75;;;12.18;;
63112;SDS011;49206;48.020;21.378;2023-05-07T05:54:49;16.55;;;13.30;;
63112;SDS011;49206;48.020;21.378;2023-05-07T05:55:52;17.67;;;12.85;;
63112;SDS011;49206;48.020;21.378;2023-05-07T05:56:55;16.80;;;12.50;;
63112;SDS011;49206;48.020;21.378;2023-05-07T05:58:01;14.10;;;11.95;;
63112;SDS011;49206;48.020;21.378;2023-05-07T05:59:07;15.55;;;11.90;;
63112;SDS011;49206;48.020;21.378;2023-05-07T06:00:10;15.05;;;12.95;;
63112;SDS011;49206;48.020;21.378;2023-05-07T06:01:19;14.93;;;11.75;;
63112;SDS011;49206;48.020;21.378;2023-05-07T06:02:24;17.90;;;12.98;;
63112;SDS011;49206;48.020;21.378;2023-05-07T06:03:29;15.60;;;12.70;;
63112;SDS011;49206;48.020;21.378;2023-05-07T06:04:35;17.25;;;13.00;;
63112;SDS011;49206;48.020;21.378;2023-05-07T06:05:38;17.00;;;12.95;;
63112;SDS011;49206;48.020;21.378;2023-05-07T06:06:45;16.75;;;12.23;;
63112;SDS011;49206;48.020;21.378;2023-05-07T06:07:48;13.23;;;11.57;;
63112;SDS011;49206;48.020;21.378;2023-05-07T06:08:51;15.95;;;12.77;;
63112;SDS011;49206;48.020;21.378;2023-05-07T06:09:59;15.93;;;12.02;;
63112;SDS011;49206;48.020;21.378;2023-05-07T06:11:02;15.18;;;12.40;;
63112;SDS011;49206;48.020;21.378;2023-05-07T06:12:08;14.65;;;12.75;;
63112;SDS011;49206;48.020;21.378;2023-05-07T06:13:14;15.23;;;12.35;;
63112;SDS011;49206;48.020;21.378;2023-05-07T06:14:16;16.38;;;13.52;;